Newhall, CA (91321)

9:36 PM PDT on October 01, 2014 (GMT -0700)
Friendly Valley, Newhall 91321 | Change Station
CLOSE
Current Station
Personal Weather Station
Location: Newhall, CA
Elevation: 1631 ft
Nearby Weather Stations

Elev 1631 ft 34.40 °N, 118.48 °W | Updated 1 second ago

Clear
Clear
70.9 °F
Feels Like 77 °F
N
0.0
Wind Variable Wind from SSW
Gusts 0.0 mph

Today
High -- | Low -- °F
--% Chance of Precip.
Yesterday
High -- | Low -- °F
Precip. -- in
6:48 AM 6:37 PM
First Quarter, 54% visible
Pressure 29.86 in
Visibility 10.0 miles
Clouds Clear
Heat Index 77 °F
Dew Point 51 °F
Humidity 50%
Rainfall 0.00 in
Snow Depth 1 in , 0 in , 1 in
UV 0 out of 12
Pollen 5.50 out of 12
Ozone Good
PM2.5 Good
Flu Activity Not available.
METAR KWHP 020247Z 00000KT 10SM SKC 24/13 A2986 RMK LAST

More Conditions Fewer Conditions

Pressure 29.86 in
Visibility 10.0 miles
Clouds Clear
Heat Index 77 °F
Dew Point 51 °F
Humidity 50%
Rainfall 0.00 in
Snow Depth 1 in , 0 in , 1 in
UV 0 out of 12
Pollen 5.50 out of 12
Ozone Good
PM2.5 Good
Flu Activity Not available.
METAR KWHP 020247Z 00000KT 10SM SKC 24/13 A2986 RMK LAST

More Conditions Fewer Conditions

10-Day Weather Forecast

Almanac

Astronomy

Oct. 01, 2014 Rise Set
Actual Time 6:48 AM PDT 6:37 PM PDT
Civil Twilight 6:23 AM PDT 7:03 PM PDT
Nautical Twilight 5:54 AM PDT 7:32 PM PDT
Astronomical Twilight 5:25 AM PDT 8:01 PM PDT
Moon 1:42 PM PDT (10/1) No Moon Set
Length of Visible Light 12h 39m
Length of Day
11h 49m
Tomorrow will be 2m 7s shorter.
First Quarter, 54% of the Moon is Illuminated
Oct 2
First Quarter
Oct 8
Full
Oct 15
Last Quarter
Oct 23
New
Oct 30
First Quarter

Yesterday's Extremes

State Highs State Lows

Community

WunderPhotos

Upload Photos

1,758,187 photos uploaded!

Nearby

Air Quality

  Air Quality AQ Index Pollutant
Yesterday Moderate
OZONE
Yesterday Good
PM2.5
Current Good
PM2.5
Current Good
OZONE
Thursday Moderate
PM10
Thursday Moderate
OZONE
Thursday Good
CO
Thursday Good
NO2

Snow Depth

Station Depth Elevation
Monitor Pass 1 in 8350 ft
Hagan's Meadow 0 in 8000 ft
Echo Peak 1 in 7800 ft
Squaw Valley 1 in 8200 ft
Ebbetts Pass 1 in 8700 ft

Earthquake Activity

City Distance Mag. Time & Date
Shandon, California 142 miles 2.9 5:34 PM PDT
2014-09-30
Avalon, California 85 miles 2.6 1:28 PM PDT
2014-09-30
Minimum magnitude displayed is 2.5.

Coastal Water Temperatures

Place Temperature
Santa Monica Pier 71.1 °F
Los Angeles, CA 68.0 °F
La Jolla, CA 72.0 °F

Nearby Weather Stations